Terminal Aerodrome Forecast
Issued by NWS

Home | Current Version | Previous Version | Text Only | Print | Product List | Glossary On
Versions: 1 2 3 4 5 6 7 8 9 10 11 12
000
FTUS45 KTFX 052320
TAFHVR
TAF
KHVR 052320Z 0600/0624 34011KT P6SM FEW070 SCT200
     FM060200 35013G22KT P6SM VCSH SCT040 BKN070
     FM060600 01010KT P6SM -SHRA SCT020 BKN040
      TEMPO 0606/0610 5SM -SHRA BR OVC020
     FM061300 02008KT P6SM SCT040 BKN100
     FM061800 06008KT P6SM BKN250=

USA.gov is the U.S. government's official web portal to all federal, state and local government web resources and services.